ADDS METAR Data INFO
IDs: Format: Raw Decoded Include TAF

Data at: 1530 UTC 18 Jun 2018

KIZA 181515Z AUTO 00000KT 10SM CLR 11/07 A3002 RMK AO2
KIZA 181455Z AUTO 00000KT 7SM CLR 10/06 A3002 RMK AO2
KIZA 181435Z AUTO 00000KT 10SM CLR 10/07 A3002 RMK AO2
KIZA 181415Z AUTO 00000KT 10SM CLR 08/06 A3001 RMK AO2
KIZA 181355Z AUTO 00000KT 10SM CLR 08/06 A3001 RMK AO2
KIZA 181335Z AUTO 00000KT 10SM CLR 07/05 A3000 RMK AO2
KIZA 181315Z AUTO 02003KT 10SM CLR 07/05 A3000 RMK AO2
KIZA 181255Z AUTO 05003KT 10SM CLR 07/05 A3000 RMK AO2
KIZA 181235Z AUTO 00000KT 10SM CLR 07/05 A3000 RMK AO2
KIZA 181215Z AUTO 00000KT 10SM CLR 07/05 A3000 RMK AO2
KIZA 181155Z AUTO 00000KT 10SM CLR 07/05 A3000 RMK AO2
KIZA 181135Z AUTO 00000KT 10SM SCT009 07/05 A3000 RMK AO2
KIZA 181115Z AUTO 00000KT 10SM SCT009 07/06 A3000 RMK AO2
KIZA 181055Z AUTO 04003KT 10SM BKN009 BKN013 07/05 A3001 RMK AO2
KIZA 181035Z AUTO 00000KT 10SM SCT009 08/06 A3001 RMK AO2
KIZA 181015Z AUTO 00000KT 10SM CLR 08/06 A3001 RMK AO2
KIZA 180955Z AUTO 00000KT 10SM CLR 08/06 A3001 RMK AO2
KIZA 180935Z AUTO 00000KT 10SM CLR 08/06 A3001 RMK AO2
KIZA 180915Z AUTO 00000KT 10SM CLR 08/06 A3001 RMK AO2
KIZA 180855Z AUTO 00000KT 10SM CLR 08/07 A3002 RMK AO2
KIZA 180835Z AUTO 01003KT 10SM CLR 10/07 A3002 RMK AO2
KIZA 180815Z AUTO 00000KT 10SM CLR 10/08 A3002 RMK AO2
KIZA 180755Z AUTO 00000KT 10SM CLR 10/08 A3003 RMK AO2
KIZA 180735Z AUTO 00000KT 10SM CLR 11/07 A3003 RMK AO2
KIZA 180715Z AUTO 00000KT 10SM CLR 10/07 A3003 RMK AO2
KIZA 180655Z AUTO 00000KT 10SM CLR 11/07 A3003 RMK AO2
KIZA 180635Z AUTO 00000KT 10SM CLR 11/07 A3003 RMK AO2
KIZA 180615Z AUTO 00000KT 10SM CLR 11/07 A3003 RMK AO2
KIZA 180555Z AUTO 23003KT 10SM CLR 12/07 A3003 RMK AO2
KIZA 180535Z AUTO 00000KT 10SM CLR 12/08 A3003 RMK AO2
KIZA 180515Z AUTO 00000KT 10SM CLR 12/08 A3002 RMK AO2
KIZA 180455Z AUTO 28004KT 10SM CLR 12/08 A3001 RMK AO2
KIZA 180435Z AUTO 27006KT 10SM CLR 13/08 A3000 RMK AO2
KIZA 180415Z AUTO 27007KT 10SM CLR 13/08 A2999 RMK AO2
KIZA 180355Z AUTO 26008KT 10SM CLR 14/08 A2999 RMK AO2
KIZA 180335Z AUTO 27006KT 10SM CLR 15/08 A2998 RMK AO2
KIZA 180315Z AUTO 26010KT 10SM CLR 15/08 A2997 RMK AO2
KIZA 180255Z AUTO 26009KT 10SM CLR 16/08 A2996 RMK AO2
KIZA 180235Z AUTO 27010KT 10SM CLR 16/08 A2996 RMK AO2
KIZA 180215Z AUTO 26013KT 10SM CLR 17/08 A2995 RMK AO2
KIZA 180155Z AUTO 26011G15KT 10SM CLR 18/08 A2995 RMK AO2
KIZA 180135Z AUTO 27012KT 10SM CLR 18/08 A2994 RMK AO2
KIZA 180115Z AUTO 26010KT 10SM CLR 20/09 A2994 RMK AO2
KIZA 180055Z AUTO 24011KT 10SM CLR 20/08 A2994 RMK AO2
KIZA 180035Z AUTO 23007G11KT 10SM CLR 20/08 A2994 RMK AO2
KIZA 180015Z AUTO 24012G15KT 10SM CLR 21/09 A2994 RMK AO2
KIZA 172355Z AUTO 25011KT 10SM CLR 21/09 A2994 RMK AO2
KIZA 172335Z AUTO 24009G15KT 10SM SCT043 21/09 A2994 RMK AO2
KIZA 172315Z AUTO 23010KT 10SM BKN043 21/09 A2994 RMK AO2
KIZA 172255Z AUTO 20009KT 10SM OVC041 21/10 A2994 RMK AO2
KIZA 172235Z AUTO 20010G15KT 10SM OVC041 21/10 A2995 RMK AO2
KIZA 172215Z AUTO 21007G14KT 10SM OVC041 20/10 A2994 RMK AO2
KIZA 172155Z AUTO 19010G14KT 174V234 10SM BKN039 OVC045 20/10 A2995 RMK AO2
KIZA 172135Z AUTO 24009KT 214V274 10SM BKN039 OVC044 20/10 A2995 RMK AO2
KIZA 172115Z AUTO 19010G15KT 10SM BKN042 20/10 A2995 RMK AO2
KIZA 172055Z AUTO 19007KT 10SM SCT036 BKN045 20/10 A2995 RMK AO2
KIZA 172035Z AUTO 22007KT 10SM SCT030 SCT045 20/10 A2995 RMK AO2
KIZA 172015Z AUTO 19006G18KT 10SM SCT045 19/10 A2996 RMK AO2 LTG DSNT N
KIZA 171955Z AUTO 16007KT 10SM SCT037 BKN043 19/10 A2996 RMK AO2
KIZA 171935Z AUTO 17012KT 10SM SCT025 BKN041 18/10 A2995 RMK AO2
KIZA 171915Z AUTO 22008KT 10SM BKN025 BKN039 BKN045 19/10 A2995 RMK AO2
KIZA 171855Z AUTO 23010G15KT 10SM SCT027 SCT032 BKN045 18/10 A2995 RMK AO2
KIZA 171835Z AUTO 23009KT 7SM BKN031 OVC042 17/10 A2995 RMK AO2
KIZA 171815Z AUTO 25010KT 10SM BKN031 OVC044 17/10 A2995 RMK AO2
KIZA 171755Z AUTO 23013KT 10SM BKN029 BKN038 OVC044 17/10 A2995 RMK AO2
KIZA 171735Z AUTO 22011KT 10SM BKN028 OVC039 16/10 A2995 RMK AO2
KIZA 171715Z AUTO 22010KT 10SM SCT017 OVC024 15/10 A2994 RMK AO2
KIZA 171655Z AUTO 21009KT 10SM OVC017 15/11 A2994 RMK AO2
KIZA 171635Z AUTO 21008KT 10SM BKN015 BKN023 OVC041 15/11 A2994 RMK AO2
KIZA 171615Z AUTO 24008KT 10SM OVC044 15/11 A2994 RMK AO2
KIZA 171555Z AUTO 25007KT 10SM SCT018 SCT024 OVC044 15/11 A2993 RMK AO2
KIZA 171535Z AUTO 25006KT 7SM SCT016 BKN027 OVC040 14/11 A2992 RMK AO2
KIZA 171515Z AUTO 26006KT 7SM BKN016 BKN027 OVC039 14/11 A2992 RMK AO2
KIZA 171455Z AUTO 29006KT 7SM BKN016 OVC026 14/11 A2991 RMK AO2
KIZA 171435Z AUTO 26004KT 10SM OVC026 14/11 A2990 RMK AO2
KIZA 171415Z AUTO 21005KT 10SM OVC026 14/11 A2990 RMK AO2
KIZA 171355Z AUTO 25003KT 10SM OVC026 14/10 A2989 RMK AO2
KIZA 171335Z AUTO 26004KT 10SM BKN026 OVC031 13/10 A2989 RMK AO2
KIZA 171315Z AUTO 29003KT 10SM OVC026 13/10 A2988 RMK AO2 LTG DSNT N
KIZA 171255Z AUTO 19004KT 10SM OVC024 13/10 A2988 RMK AO2
KIZA 171235Z AUTO 24003KT 10SM SCT014 OVC024 13/10 A2988 RMK AO2
KIZA 171215Z AUTO 29003KT 10SM OVC024 13/10 A2987 RMK AO2
KIZA 171155Z AUTO 30003KT 10SM BKN026 OVC036 13/10 A2987 RMK AO2
KIZA 171135Z AUTO 00000KT 10SM BKN028 OVC036 13/10 A2987 RMK AO2
KIZA 171115Z AUTO 00000KT 10SM BKN028 OVC034 13/10 A2987 RMK AO2
KIZA 171055Z AUTO 30003KT 10SM BKN028 OVC035 13/10 A2987 RMK AO2
KIZA 171035Z AUTO 31004KT 10SM BKN031 OVC037 13/10 A2986 RMK AO2
KIZA 171015Z AUTO 29004KT 10SM OVC033 13/10 A2986 RMK AO2
KIZA 170955Z AUTO 29003KT 10SM OVC033 13/10 A2986 RMK AO2
KIZA 170935Z AUTO 31004KT 10SM BKN035 13/10 A2986 RMK AO2
KIZA 170915Z AUTO 30003KT 10SM BKN037 13/10 A2986 RMK AO2
KIZA 170855Z AUTO 00000KT 10SM SCT026 OVC037 13/10 A2986 RMK AO2
KIZA 170835Z AUTO 26006KT 10SM BKN023 OVC037 14/10 A2986 RMK AO2
KIZA 170815Z AUTO 22005KT 10SM OVC023 14/10 A2986 RMK AO2
KIZA 170755Z AUTO 22005KT 10SM OVC023 15/10 A2987 RMK AO2
KIZA 170735Z AUTO 22004KT 10SM BKN023 OVC028 14/10 A2987 RMK AO2
KIZA 170715Z AUTO 20007KT 10SM BKN023 BKN027 OVC033 14/10 A2987 RMK AO2
KIZA 170655Z AUTO 20005KT 10SM SCT023 OVC033 14/10 A2987 RMK AO2
KIZA 170635Z AUTO 21006KT 10SM SCT023 OVC033 14/10 A2987 RMK AO2
KIZA 170615Z AUTO 21007KT 10SM SCT016 SCT023 OVC033 14/10 A2986 RMK AO2
KIZA 170555Z AUTO 20007KT 10SM BKN016 OVC025 14/10 A2987 RMK AO2
KIZA 170535Z AUTO 24005KT 10SM SCT018 OVC025 15/10 A2987 RMK AO2
KIZA 170515Z AUTO 26006KT 10SM BKN027 OVC034 15/10 A2986 RMK AO2
KIZA 170455Z AUTO 28006KT 10SM OVC029 15/10 A2985 RMK AO2
KIZA 170435Z AUTO 28005KT 10SM OVC031 15/10 A2985 RMK AO2
KIZA 170415Z AUTO 30005KT 10SM SCT021 OVC031 15/10 A2985 RMK AO2
KIZA 170355Z AUTO 30007KT 10SM SCT021 OVC033 15/10 A2984 RMK AO2
KIZA 170335Z AUTO 28007KT 10SM OVC035 15/10 A2984 RMK AO2